X  Cerrar Datos meteorológicos de aviación METAR     EHKD De Kooy Airport
Temperatura
13°C Temperatura
12°C Punto de rocío
94% Humedad



Viento
3 MPH
5 KM/H
1 M/S
3 NUDO



190°
S
Condiciones actuales

Claro Claro
Presión 1010.84 (hPa) - 29.85 (inHg)
Visibilidad 6 (milla) - 9.7 (km)
Aeropuerto
Código de aeropuerto EHKD

localidad: De Kooy Airport
Distancia: 34 (mi)

Metar:
EHKD 150441Z AUTO 19003KT 9999 NCD 13/12 Q1011 BLU NOSIG

Hora: 15-07-2024 06:41 CEST